Time;durP1;ratioP1;P1;durP2;ratioP2;P2;SDS_P1;SDS_P2;PMS_P1;PMS_P2;Temp;Humidity;BMP_temperature;BMP_pressure;BME280_temperature;BME280_humidity;BME280_pressure;Samples;Min_cycle;Max_cycle;Signal;HPM_P1;HPM_P2
2024/02/07 00:00:24;;;;;;;7.10;2.90;;;;;;;;;;10405332;28;20487;-74
2024/02/07 00:05:28;;;;;;;5.82;2.78;;;;;;;;;;10406890;28;20174;-74
2024/02/07 00:10:32;;;;;;;7.82;3.40;;;;;;;;;;10402570;28;20125;-75
2024/02/07 00:15:35;;;;;;;10.25;3.85;;;;;;;;;;10407837;28;20041;-75
2024/02/07 00:20:39;;;;;;;8.30;3.33;;;;;;;;;;10407093;28;20053;-75
2024/02/07 00:25:43;;;;;;;8.20;3.20;;;;;;;;;;10405147;28;20049;-74
2024/02/07 00:30:47;;;;;;;7.38;3.90;;;;;;;;;;10408054;28;20128;-74
2024/02/07 00:35:51;;;;;;;11.52;4.90;;;;;;;;;;10406146;28;20053;-74
2024/02/07 00:40:55;;;;;;;10.02;4.63;;;;;;;;;;10379926;28;20077;-74
2024/02/07 00:45:58;;;;;;;6.47;3.33;;;;;;;;;;10407513;28;20129;-75
2024/02/07 00:51:03;;;;;;;8.65;4.00;;;;;;;;;;10397890;28;20040;-74
2024/02/07 00:56:06;;;;;;;6.82;4.10;;;;;;;;;;10400460;28;20045;-74
2024/02/07 01:01:10;;;;;;;10.48;4.30;;;;;;;;;;10382161;28;20224;-74
2024/02/07 01:06:14;;;;;;;8.98;4.38;;;;;;;;;;10402416;28;20689;-75
2024/02/07 01:11:18;;;;;;;11.05;5.05;;;;;;;;;;10401488;28;20120;-75
2024/02/07 01:16:21;;;;;;;11.60;4.38;;;;;;;;;;10402975;28;20037;-75
2024/02/07 01:21:26;;;;;;;8.48;4.35;;;;;;;;;;10397578;28;20378;-75
2024/02/07 01:26:33;;;;;;;7.63;4.72;;;;;;;;;;10401743;28;20056;-74
2024/02/07 01:31:37;;;;;;;9.50;4.75;;;;;;;;;;10398776;28;20053;-75
2024/02/07 01:36:45;;;;;;;11.32;4.72;;;;;;;;;;10406015;28;20041;-75
2024/02/07 01:41:58;;;;;;;7.63;3.95;;;;;;;;;;10401760;28;20125;-75
2024/02/07 01:47:14;;;;;;;9.07;4.22;;;;;;;;;;10402172;28;20124;-75
2024/02/07 01:52:22;;;;;;;8.68;3.80;;;;;;;;;;10397061;28;20526;-75
2024/02/07 01:57:25;;;;;;;6.53;3.72;;;;;;;;;;10394823;28;20509;-74
2024/02/07 02:02:29;;;;;;;10.70;3.80;;;;;;;;;;10407381;28;20041;-75
2024/02/07 02:07:34;;;;;;;6.38;3.50;;;;;;;;;;10400060;28;20049;-75
2024/02/07 02:12:37;;;;;;;7.45;3.40;;;;;;;;;;10402239;28;20042;-75
2024/02/07 02:17:41;;;;;;;7.53;3.40;;;;;;;;;;10401993;28;20041;-74
2024/02/07 02:23:13;;;;;;;8.95;3.55;;;;;;;;;;10399137;28;20065;-75
2024/02/07 02:28:29;;;;;;;10.40;4.00;;;;;;;;;;10391756;28;20044;-74
2024/02/07 02:33:36;;;;;;;7.85;3.50;;;;;;;;;;10403141;28;20156;-75
2024/02/07 02:38:39;;;;;;;6.85;3.40;;;;;;;;;;10408302;28;20042;-74
2024/02/07 02:43:43;;;;;;;11.02;3.72;;;;;;;;;;10407173;28;20136;-75
2024/02/07 02:48:48;;;;;;;8.55;3.65;;;;;;;;;;10409219;28;20061;-75
2024/02/07 02:53:52;;;;;;;7.95;3.70;;;;;;;;;;10409018;28;20042;-74
2024/02/07 02:58:56;;;;;;;7.57;3.88;;;;;;;;;;10388992;28;20125;-74
2024/02/07 03:04:03;;;;;;;10.95;3.78;;;;;;;;;;10408483;28;20519;-75
2024/02/07 03:09:07;;;;;;;9.20;3.17;;;;;;;;;;10388211;28;20056;-74
2024/02/07 03:14:11;;;;;;;9.88;4.25;;;;;;;;;;10406329;28;20132;-75
2024/02/07 03:19:16;;;;;;;9.98;3.83;;;;;;;;;;10408955;28;20038;-74
2024/02/07 03:24:19;;;;;;;8.05;3.78;;;;;;;;;;10406272;28;20034;-75
2024/02/07 03:29:22;;;;;;;9.55;4.38;;;;;;;;;;10387910;28;20053;-74
2024/02/07 03:34:27;;;;;;;11.00;4.30;;;;;;;;;;10387841;28;20071;-74
2024/02/07 03:39:30;;;;;;;13.00;4.80;;;;;;;;;;10403935;28;20541;-74
2024/02/07 03:44:34;;;;;;;9.65;3.90;;;;;;;;;;10403774;28;20135;-75
2024/02/07 03:49:40;;;;;;;13.60;3.80;;;;;;;;;;10409973;28;20545;-75
2024/02/07 03:54:50;;;;;;;9.07;3.78;;;;;;;;;;10405002;28;20046;-74
2024/02/07 03:59:53;;;;;;;11.57;4.43;;;;;;;;;;10406154;28;20474;-74
2024/02/07 04:05:01;;;;;;;11.13;3.92;;;;;;;;;;10403948;28;20044;-74
2024/02/07 04:10:09;;;;;;;7.55;3.40;;;;;;;;;;10401403;28;20049;-75
2024/02/07 05:19:27;;;;;;;5.03;2.22;;;;;;;;;;10397004;28;20497;-75
2024/02/07 05:24:33;;;;;;;6.55;2.83;;;;;;;;;;10404125;28;20056;-75
2024/02/07 05:29:36;;;;;;;4.70;2.70;;;;;;;;;;10397306;28;20046;-75
2024/02/07 05:34:39;;;;;;;4.20;2.60;;;;;;;;;;10397586;28;20057;-75
2024/02/07 05:39:44;;;;;;;4.55;2.28;;;;;;;;;;10396269;28;20132;-76
2024/02/07 05:44:48;;;;;;;5.30;2.22;;;;;;;;;;10397707;28;20050;-75
2024/02/07 05:49:51;;;;;;;4.00;2.20;;;;;;;;;;10400306;28;20116;-75
2024/02/07 05:54:57;;;;;;;6.65;2.67;;;;;;;;;;10382673;28;20141;-74
2024/02/07 06:00:02;;;;;;;4.78;2.35;;;;;;;;;;10399646;28;20049;-74
2024/02/07 06:05:13;;;;;;;5.03;2.45;;;;;;;;;;10399795;28;20040;-74
2024/02/07 06:10:19;;;;;;;4.20;2.10;;;;;;;;;;10389400;28;20152;-75
2024/02/07 06:15:22;;;;;;;3.22;1.98;;;;;;;;;;10380026;28;20049;-75
2024/02/07 06:20:26;;;;;;;4.68;2.63;;;;;;;;;;10395013;28;20136;-75
2024/02/07 06:25:31;;;;;;;5.70;1.95;;;;;;;;;;10396148;28;20462;-75
2024/02/07 06:30:34;;;;;;;2.63;1.90;;;;;;;;;;10395330;28;20145;-75
2024/02/07 06:35:38;;;;;;;5.28;1.70;;;;;;;;;;10380100;28;20745;-75
2024/02/07 06:40:42;;;;;;;3.30;1.80;;;;;;;;;;10374224;28;20047;-75
2024/02/07 06:45:45;;;;;;;2.28;1.60;;;;;;;;;;10389637;28;20038;-75
2024/02/07 06:50:50;;;;;;;1.90;1.30;;;;;;;;;;10390015;28;20453;-75
2024/02/07 06:55:54;;;;;;;3.08;1.80;;;;;;;;;;10387555;28;20068;-74
2024/02/07 07:01:00;;;;;;;3.78;1.90;;;;;;;;;;10378025;28;20053;-75
2024/02/07 07:06:03;;;;;;;2.83;1.67;;;;;;;;;;10377444;28;20073;-75
2024/02/07 07:11:08;;;;;;;3.45;2.20;;;;;;;;;;10377943;28;20123;-75
2024/02/07 07:16:11;;;;;;;2.72;1.73;;;;;;;;;;10396365;28;20117;-75
2024/02/07 07:21:14;;;;;;;2.72;1.70;;;;;;;;;;10400489;28;20045;-75
2024/02/07 07:26:19;;;;;;;2.75;1.75;;;;;;;;;;10397383;28;20037;-75
2024/02/07 07:31:22;;;;;;;5.30;1.80;;;;;;;;;;10401820;28;20049;-75
2024/02/07 07:36:27;;;;;;;3.95;1.60;;;;;;;;;;10402214;28;20132;-76
2024/02/07 07:41:32;;;;;;;4.63;1.58;;;;;;;;;;10403846;28;20095;-76
2024/02/07 07:46:36;;;;;;;1.90;1.42;;;;;;;;;;10405621;28;20042;-75
2024/02/07 07:51:39;;;;;;;2.03;1.50;;;;;;;;;;10401699;28;20140;-75
2024/02/07 07:56:44;;;;;;;1.42;1.25;;;;;;;;;;10401389;28;20128;-75
2024/02/07 08:01:57;;;;;;;1.60;1.33;;;;;;;;;;10399629;28;20572;-75
2024/02/07 08:07:00;;;;;;;2.78;0.95;;;;;;;;;;10398455;28;20045;-75
2024/02/07 08:12:05;;;;;;;4.03;1.35;;;;;;;;;;10397932;28;20049;-75
2024/02/07 08:17:09;;;;;;;2.63;1.50;;;;;;;;;;10396485;28;20415;-75
2024/02/07 08:22:13;;;;;;;2.63;1.50;;;;;;;;;;10391524;28;20093;-75
2024/02/07 08:27:18;;;;;;;1.27;1.17;;;;;;;;;;10401633;28;20149;-75
2024/02/07 08:32:21;;;;;;;1.75;0.70;;;;;;;;;;10396628;28;20041;-75
2024/02/07 08:37:26;;;;;;;1.30;1.05;;;;;;;;;;10392781;28;20056;-75
2024/02/07 08:42:31;;;;;;;0.80;0.80;;;;;;;;;;10394738;28;20064;-75
2024/02/07 08:47:35;;;;;;;2.13;1.10;;;;;;;;;;10396647;28;20045;-75
2024/02/07 08:52:39;;;;;;;1.52;1.08;;;;;;;;;;10399161;28;20060;-75
2024/02/07 08:57:44;;;;;;;1.48;0.90;;;;;;;;;;10400499;28;20049;-75
2024/02/07 09:02:49;;;;;;;1.80;0.82;;;;;;;;;;10397370;28;20045;-75
2024/02/07 09:07:53;;;;;;;1.10;0.90;;;;;;;;;;10398515;28;20104;-75
2024/02/07 09:12:59;;;;;;;1.45;0.77;;;;;;;;;;10395012;28;20107;-75
2024/02/07 09:18:02;;;;;;;3.17;1.20;;;;;;;;;;10400396;28;20049;-75
2024/02/07 09:23:05;;;;;;;0.85;0.80;;;;;;;;;;10400557;28;20041;-75
2024/02/07 09:28:10;;;;;;;0.88;0.80;;;;;;;;;;10396534;28;20048;-75
2024/02/07 09:33:15;;;;;;;1.27;0.90;;;;;;;;;;10398407;28;20049;-76
2024/02/07 09:38:21;;;;;;;1.55;0.70;;;;;;;;;;10398511;28;20127;-75
2024/02/07 09:43:26;;;;;;;;;;;;;;;;;;10394536;28;20439;-75
2024/02/07 09:48:29;;;;;;;;;;;;;;;;;;10399715;28;19928;-75
2024/02/07 09:53:33;;;;;;;;;;;;;;;;;;10399847;28;19921;-75
2024/02/07 09:58:38;;;;;;;;;;;;;;;;;;10397576;28;19975;-75
2024/02/07 10:03:45;;;;;;;;;;;;;;;;;;10400194;28;19928;-75
2024/02/07 10:08:49;;;;;;;;;;;;;;;;;;10401530;28;19925;-75
2024/02/07 10:13:54;;;;;;;;;;;;;;;;;;10398594;28;20005;-75
2024/02/07 10:18:57;;;;;;;;;;;;;;;;;;10379787;28;19956;-75
2024/02/07 10:24:00;;;;;;;;;;;;;;;;;;10394452;28;20429;-75
2024/02/07 10:29:05;;;;;;;;;;;;;;;;;;10393502;28;20392;-75
2024/02/07 10:34:17;;;;;;;;;;;;;;;;;;10400175;28;19921;-75
2024/02/07 10:39:21;;;;;;;;;;;;;;;;;;10393374;28;20405;-75
2024/02/07 10:44:25;;;;;;;;;;;;;;;;;;10397689;28;19921;-75
2024/02/07 10:49:28;;;;;;;;;;;;;;;;;;10382986;28;19920;-75
2024/02/07 10:54:32;;;;;;;;;;;;;;;;;;10400934;28;19921;-75
2024/02/07 10:59:39;;;;;;;;;;;;;;;;;;10407508;28;20019;-75
2024/02/07 11:04:43;;;;;;;;;;;;;;;;;;10407433;28;20004;-75
2024/02/07 11:09:46;;;;;;;;;;;;;;;;;;10405220;28;19921;-76
2024/02/07 11:14:52;;;;;;;;;;;;;;;;;;10408825;28;19921;-75
2024/02/07 11:19:55;;;;;;;;;;;;;;;;;;10402660;28;20573;-75
2024/02/07 11:24:59;;;;;;;;;;;;;;;;;;10400278;28;19921;-75
2024/02/07 11:30:07;;;;;;;;;;;;;;;;;;10403106;28;19959;-75
2024/02/07 11:35:12;;;;;;;;;;;;;;;;;;10399925;28;19957;-75
2024/02/07 11:40:15;;;;;;;;;;;;;;;;;;10383558;28;19975;-75
2024/02/07 11:45:22;;;;;;;;;;;;;;;;;;10401122;28;20464;-75
2024/02/07 11:50:25;;;;;;;;;;;;;;;;;;10397994;28;19921;-75
2024/02/07 11:55:28;;;;;;;;;;;;;;;;;;10397296;28;19995;-75
2024/02/07 12:00:33;;;;;;;;;;;;;;;;;;10402383;28;20453;-75
2024/02/07 12:05:36;;;;;;;;;;;;;;;;;;10405382;28;20032;-75
2024/02/07 12:10:39;;;;;;;;;;;;;;;;;;10397245;28;19979;-75
2024/02/07 12:15:44;;;;;;;;;;;;;;;;;;10386114;28;20095;-75
2024/02/07 12:20:47;;;;;;;;;;;;;;;;;;10384356;28;20323;-75
2024/02/07 12:25:55;;;;;;;;;;;;;;;;;;10415698;28;19929;-75
2024/02/07 12:31:00;;;;;;;;;;;;;;;;;;10419323;28;19929;-75
2024/02/07 12:36:04;;;;;;;;;;;;;;;;;;10394903;28;20174;-75
2024/02/07 12:41:07;;;;;;;;;;;;;;;;;;10414288;28;19928;-75
2024/02/07 12:46:12;;;;;;;;;;;;;;;;;;10420824;28;19928;-75
2024/02/07 12:51:15;;;;;;;;;;;;;;;;;;10422374;28;19931;-75
2024/02/07 12:56:21;;;;;;;;;;;;;;;;;;10418759;28;20563;-75
2024/02/07 13:01:26;;;;;;;;;;;;;;;;;;10417873;28;19931;-75
2024/02/07 13:06:29;;;;;;;;;;;;;;;;;;10422647;28;20433;-75
2024/02/07 13:11:32;;;;;;;;;;;;;;;;;;10420880;28;19970;-75
2024/02/07 13:16:37;;;;;;;;;;;;;;;;;;10417223;28;19920;-75
2024/02/07 13:21:40;;;;;;;;;;;;;;;;;;10414937;28;19966;-75
2024/02/07 13:26:44;;;;;;;;;;;;;;;;;;10408487;28;19921;-75
2024/02/07 13:31:48;;;;;;;;;;;;;;;;;;10402619;28;20231;-75
2024/02/07 13:36:52;;;;;;;;;;;;;;;;;;10423563;28;19921;-75
2024/02/07 13:41:56;;;;;;;;;;;;;;;;;;10420778;28;20019;-75
2024/02/07 13:47:01;;;;;;;;;;;;;;;;;;10420806;28;20337;-75
2024/02/07 13:52:05;;;;;;;;;;;;;;;;;;10418378;28;19942;-75
2024/02/07 13:57:08;;;;;;;;;;;;;;;;;;10390786;28;20431;-75
2024/02/07 14:02:13;;;;;;;;;;;;;;;;;;10425874;28;19960;-75
2024/02/07 14:07:16;;;;;;;;;;;;;;;;;;10416569;28;19921;-75
2024/02/07 14:12:19;;;;;;;;;;;;;;;;;;10416957;28;19979;-75
2024/02/07 14:17:24;;;;;;;;;;;;;;;;;;10424644;28;19921;-75
2024/02/07 14:22:27;;;;;;;;;;;;;;;;;;10410537;28;20413;-75
2024/02/07 14:27:30;;;;;;;;;;;;;;;;;;10418673;28;20123;-75
2024/02/07 14:32:34;;;;;;;;;;;;;;;;;;10426241;28;19928;-75
2024/02/07 14:37:38;;;;;;;;;;;;;;;;;;10429113;28;20337;-75
2024/02/07 14:42:42;;;;;;;;;;;;;;;;;;10423663;28;20301;-75
2024/02/07 14:47:46;;;;;;;;;;;;;;;;;;10425820;28;19967;-75
2024/02/07 14:52:50;;;;;;;;;;;;;;;;;;10428823;28;20052;-75
2024/02/07 14:57:53;;;;;;;;;;;;;;;;;;10417311;28;19928;-75
2024/02/07 15:02:58;;;;;;;;;;;;;;;;;;10413241;28;19951;-75
2024/02/07 15:08:01;;;;;;;;;;;;;;;;;;10419708;28;19924;-75
2024/02/07 15:13:04;;;;;;;;;;;;;;;;;;10419360;28;19925;-75
2024/02/07 15:18:09;;;;;;;;;;;;;;;;;;10407907;28;19920;-76
2024/02/07 15:23:14;;;;;;;;;;;;;;;;;;10425089;28;19921;-75
2024/02/07 15:28:17;;;;;;;;;;;;;;;;;;10412226;28;20039;-75
2024/02/07 15:33:22;;;;;;;;;;;;;;;;;;10426209;28;20291;-75
2024/02/07 15:38:25;;;;;;;;;;;;;;;;;;10429745;28;19956;-75
2024/02/07 15:43:29;;;;;;;;;;;;;;;;;;10420741;28;19921;-75
2024/02/07 15:48:33;;;;;;;;;;;;;;;;;;10426683;28;19921;-75
2024/02/07 15:53:37;;;;;;;;;;;;;;;;;;10425779;28;19925;-75
2024/02/07 15:58:40;;;;;;;;;;;;;;;;;;10417633;28;20046;-75
2024/02/07 16:03:45;;;;;;;;;;;;;;;;;;10427468;28;19920;-75
2024/02/07 16:08:50;;;;;;;;;;;;;;;;;;10415676;28;20019;-75
2024/02/07 16:13:53;;;;;;;;;;;;;;;;;;10407389;28;20015;-75
2024/02/07 16:18:58;;;;;;;;;;;;;;;;;;10424183;28;19959;-75
2024/02/07 16:24:01;;;;;;;;;;;;;;;;;;10428769;28;19924;-75
2024/02/07 16:29:04;;;;;;;;;;;;;;;;;;10419781;28;20019;-75
2024/02/07 16:34:09;;;;;;;;;;;;;;;;;;10414932;28;19924;-76
2024/02/07 16:39:12;;;;;;;;;;;;;;;;;;10410345;28;19929;-75
2024/02/07 16:44:15;;;;;;;;;;;;;;;;;;10412091;28;19920;-75
2024/02/07 16:49:20;;;;;;;;;;;;;;;;;;10415539;28;20381;-75
2024/02/07 16:54:23;;;;;;;;;;;;;;;;;;10414720;28;20050;-75
2024/02/07 16:59:26;;;;;;;;;;;;;;;;;;10415935;28;19935;-75
2024/02/07 17:04:31;;;;;;;;;;;;;;;;;;10412621;28;19921;-75
2024/02/07 17:09:45;;;;;;;;;;;;;;;;;;10400567;28;20498;-75
2024/02/07 17:14:48;;;;;;;;;;;;;;;;;;10426776;28;20015;-74
2024/02/07 17:19:53;;;;;;;;;;;;;;;;;;10417123;28;19925;-74
2024/02/07 17:24:57;;;;;;;;;;;;;;;;;;10432182;28;19924;-74
2024/02/07 17:30:00;;;;;;;;;;;;;;;;;;10426099;28;19921;-74
2024/02/07 17:35:06;;;;;;;;;;;;;;;;;;10428628;28;19920;-75
2024/02/07 17:40:09;;;;;;;;;;;;;;;;;;10410566;28;19920;-74
2024/02/07 17:45:12;;;;;;;;;;;;;;;;;;10431365;28;19935;-74
2024/02/07 17:50:22;;;;;;;;;;;;;;;;;;10428721;28;19931;-75
2024/02/07 17:55:25;;;;;;;;;;;;;;;;;;10427052;28;19924;-75
2024/02/07 18:00:31;;;;;;;;;;;;;;;;;;10421529;28;20442;-75
2024/02/07 18:05:36;;;;;;;;;;;;;;;;;;10421657;28;20421;-74
2024/02/07 18:10:40;;;;;;;;;;;;;;;;;;10426615;28;19951;-75
2024/02/07 18:15:43;;;;;;;;;;;;;;;;;;10412720;28;19929;-75
2024/02/07 18:20:48;;;;;;;;;;;;;;;;;;10432791;28;19920;-75
2024/02/07 18:25:51;;;;;;;;;;;;;;;;;;10431530;28;19932;-75
2024/02/07 18:30:54;;;;;;;;;;;;;;;;;;10425801;28;20027;-75
2024/02/07 18:35:58;;;;;;;;;;;;;;;;;;10419007;28;20482;-75
2024/02/07 18:41:01;;;;;;;;;;;;;;;;;;10422015;28;19954;-74
2024/02/07 18:46:05;;;;;;;;;;;;;;;;;;10428777;28;19925;-75
2024/02/07 18:51:09;;;;;;;;;;;;;;;;;;10425886;28;19921;-74
2024/02/07 18:56:13;;;;;;;;;;;;;;;;;;10431885;28;19929;-75
2024/02/07 19:01:16;;;;;;;;;;;;;;;;;;10430466;28;20370;-74
2024/02/07 19:06:21;;;;;;;;;;;;;;;;;;10411783;28;19929;-74
2024/02/07 19:11:25;;;;;;;;;;;;;;;;;;10432889;28;20365;-75
2024/02/07 19:16:29;;;;;;;;;;;;;;;;;;10437321;28;19924;-74
2024/02/07 19:21:34;;;;;;;;;;;;;;;;;;10420763;28;20429;-75
2024/02/07 19:26:40;;;;;;;;;;;;;;;;;;10438285;28;19928;-74
2024/02/07 19:31:43;;;;;;;;;;;;;;;;;;10432722;28;19982;-74
2024/02/07 19:36:48;;;;;;;;;;;;;;;;;;10431540;28;19978;-75
2024/02/07 19:41:51;;;;;;;;;;;;;;;;;;10427082;28;19920;-75
2024/02/07 19:46:54;;;;;;;;;;;;;;;;;;10434647;28;20313;-75
2024/02/07 19:52:00;;;;;;;;;;;;;;;;;;10438460;28;19931;-75
2024/02/07 19:57:03;;;;;;;;;;;;;;;;;;10437152;28;19929;-75
2024/02/07 20:02:06;;;;;;;;;;;;;;;;;;10437738;28;19931;-75
2024/02/07 20:07:11;;;;;;;;;;;;;;;;;;10417895;28;19982;-75
2024/02/07 20:12:14;;;;;;;;;;;;;;;;;;10431719;28;20007;-75
2024/02/07 20:17:18;;;;;;;;;;;;;;;;;;10430998;28;19951;-75
2024/02/07 20:22:23;;;;;;;;;;;;;;;;;;10435503;28;20390;-75
2024/02/07 20:27:26;;;;;;;;;;;;;;;;;;10429443;28;20141;-75
2024/02/07 20:32:29;;;;;;;;;;;;;;;;;;10429426;28;19920;-75
2024/02/07 20:37:34;;;;;;;;;;;;;;;;;;10433558;28;19920;-75
2024/02/07 20:42:39;;;;;;;;;;;;;;;;;;10428660;28;19929;-75
2024/02/07 20:47:42;;;;;;;;;;;;;;;;;;10436025;28;19959;-75
2024/02/07 20:52:46;;;;;;;;;;;;;;;;;;10434886;28;20381;-75
2024/02/07 20:57:52;;;;;;;;;;;;;;;;;;10426130;28;19920;-75
2024/02/07 21:02:55;;;;;;;;;;;;;;;;;;10437365;28;20029;-75
2024/02/07 21:08:00;;;;;;;;;;;;;;;;;;10437527;28;19921;-75
2024/02/07 21:13:03;;;;;;;;;;;;;;;;;;10429390;28;20376;-75
2024/02/07 21:18:07;;;;;;;;;;;;;;;;;;10438416;28;19928;-75
2024/02/07 21:23:12;;;;;;;;;;;;;;;;;;10438866;28;19921;-75
2024/02/07 21:28:15;;;;;;;;;;;;;;;;;;10434051;28;19921;-75
2024/02/07 21:33:21;;;;;;;;;;;;;;;;;;10437108;28;20674;-75
2024/02/07 21:38:27;;;;;;;;;;;;;;;;;;10430143;28;20016;-75
2024/02/07 21:43:31;;;;;;;;;;;;;;;;;;10437642;28;19920;-75
2024/02/07 21:48:34;;;;;;;;;;;;;;;;;;10438431;28;20447;-75
2024/02/07 21:53:39;;;;;;;;;;;;;;;;;;10415614;28;19956;-75
2024/02/07 21:58:42;;;;;;;;;;;;;;;;;;10428837;28;19932;-75
2024/02/07 22:03:46;;;;;;;;;;;;;;;;;;10432367;28;19921;-75
2024/02/07 22:08:52;;;;;;;;;;;;;;;;;;10436664;28;20011;-75
2024/02/07 22:13:56;;;;;;;;;;;;;;;;;;10436062;28;19960;-75
2024/02/07 22:18:59;;;;;;;;;;;;;;;;;;10435845;28;20320;-75
2024/02/07 22:24:03;;;;;;;;;;;;;;;;;;10429931;28;19921;-75
2024/02/07 22:29:06;;;;;;;;;;;;;;;;;;10419259;28;20588;-75
2024/02/07 22:34:10;;;;;;;;;;;;;;;;;;10430598;28;19952;-75
2024/02/07 22:39:14;;;;;;;;;;;;;;;;;;10412847;28;20020;-75
2024/02/07 22:44:20;;;;;;;;;;;;;;;;;;10431424;28;20054;-75
2024/02/07 22:49:23;;;;;;;;;;;;;;;;;;10432745;28;19921;-75
2024/02/07 22:54:28;;;;;;;;;;;;;;;;;;10453001;28;19920;-75
2024/02/07 22:59:31;;;;;;;;;;;;;;;;;;10440650;28;19940;-75
2024/02/07 23:04:38;;;;;;;;;;;;;;;;;;10445304;28;19921;-75
2024/02/07 23:09:42;;;;;;;;;;;;;;;;;;10439901;28;19933;-75
2024/02/07 23:14:45;;;;;;;;;;;;;;;;;;10445689;28;20098;-75
2024/02/07 23:19:49;;;;;;;;;;;;;;;;;;10414147;28;19924;-75
2024/02/07 23:24:53;;;;;;;;;;;;;;;;;;10441835;28;19924;-75
2024/02/07 23:29:56;;;;;;;;;;;;;;;;;;10438509;28;20298;-75
2024/02/07 23:34:59;;;;;;;;;;;;;;;;;;10443691;28;19948;-76
2024/02/07 23:40:04;;;;;;;;;;;;;;;;;;10443849;28;19952;-75
2024/02/07 23:45:08;;;;;;;;;;;;;;;;;;10438207;28;19927;-75
2024/02/07 23:50:11;;;;;;;;;;;;;;;;;;10450434;28;19955;-75
2024/02/07 23:55:16;;;;;;;;;;;;;;;;;;10439356;28;20334;-75
